sensor_id;sensor_type;location;lat;lon;timestamp;pressure;altitude;pressure_sealevel;temperature;humidity
70841;BME280;58465;51.534;9.934;2022-12-29T00:02:02;98945.31;;;10.98;67.29
70841;BME280;58465;51.534;9.934;2022-12-29T00:04:27;98938.09;;;11.00;66.96
70841;BME280;58465;51.534;9.934;2022-12-29T00:06:53;98936.66;;;11.13;67.13
70841;BME280;58465;51.534;9.934;2022-12-29T00:09:19;98932.25;;;11.12;66.98
70841;BME280;58465;51.534;9.934;2022-12-29T00:11:45;98931.22;;;11.15;67.20
70841;BME280;58465;51.534;9.934;2022-12-29T00:14:11;98926.03;;;11.12;66.63
70841;BME280;58465;51.534;9.934;2022-12-29T00:16:55;98926.16;;;11.09;67.20
70841;BME280;58465;51.534;9.934;2022-12-29T00:19:21;98921.09;;;11.03;67.83
70841;BME280;58465;51.534;9.934;2022-12-29T00:22:05;98924.56;;;11.05;67.82
70841;BME280;58465;51.534;9.934;2022-12-29T00:24:49;98915.75;;;11.03;67.67
70841;BME280;58465;51.534;9.934;2022-12-29T00:27:30;98926.28;;;11.06;67.28
70841;BME280;58465;51.534;9.934;2022-12-29T00:30:21;98920.69;;;11.12;67.09
70841;BME280;58465;51.534;9.934;2022-12-29T00:33:13;98916.94;;;11.16;67.47
70841;BME280;58465;51.534;9.934;2022-12-29T00:36:01;98905.84;;;11.25;66.94
70841;BME280;58465;51.534;9.934;2022-12-29T00:38:28;98913.16;;;11.22;67.11
70841;BME280;58465;51.534;9.934;2022-12-29T00:41:12;98913.69;;;11.30;67.49
70841;BME280;58465;51.534;9.934;2022-12-29T00:43:56;98921.50;;;11.34;67.25
70841;BME280;58465;51.534;9.934;2022-12-29T00:46:34;98920.97;;;11.26;67.12
70841;BME280;58465;51.534;9.934;2022-12-29T00:49:00;98910.03;;;11.32;67.43
70841;BME280;58465;51.534;9.934;2022-12-29T00:51:45;98906.47;;;11.32;67.13
70841;BME280;58465;51.534;9.934;2022-12-29T00:54:10;98910.41;;;11.23;67.35
70841;BME280;58465;51.534;9.934;2022-12-29T00:56:35;98907.34;;;11.32;67.60
70841;BME280;58465;51.534;9.934;2022-12-29T00:59:05;98913.69;;;11.30;67.57
70841;BME280;58465;51.534;9.934;2022-12-29T01:01:32;98896.72;;;11.31;67.64
70841;BME280;58465;51.534;9.934;2022-12-29T01:03:57;98896.84;;;11.28;67.88
70841;BME280;58465;51.534;9.934;2022-12-29T01:06:23;98896.78;;;11.29;67.67
70841;BME280;58465;51.534;9.934;2022-12-29T01:08:48;98884.69;;;11.21;68.14
70841;BME280;58465;51.534;9.934;2022-12-29T01:11:33;98892.72;;;11.21;68.30
70841;BME280;58465;51.534;9.934;2022-12-29T01:13:59;98892.13;;;11.14;68.55
70841;BME280;58465;51.534;9.934;2022-12-29T01:16:24;98882.16;;;11.18;68.37
70841;BME280;58465;51.534;9.934;2022-12-29T01:18:49;98870.59;;;11.17;68.44
70841;BME280;58465;51.534;9.934;2022-12-29T01:21:14;98865.31;;;11.15;68.65
70841;BME280;58465;51.534;9.934;2022-12-29T01:23:39;98869.47;;;11.23;68.33
70841;BME280;58465;51.534;9.934;2022-12-29T01:26:12;98874.00;;;11.21;68.42
70841;BME280;58465;51.534;9.934;2022-12-29T01:28:37;98871.22;;;11.24;68.79
70841;BME280;58465;51.534;9.934;2022-12-29T01:31:05;98860.41;;;11.25;68.46
70841;BME280;58465;51.534;9.934;2022-12-29T01:33:30;98856.81;;;11.26;69.12
70841;BME280;58465;51.534;9.934;2022-12-29T01:36:00;98858.78;;;11.23;69.28
70841;BME280;58465;51.534;9.934;2022-12-29T01:38:25;98863.31;;;11.21;68.87
70841;BME280;58465;51.534;9.934;2022-12-29T01:40:51;98855.16;;;11.24;69.29
70841;BME280;58465;51.534;9.934;2022-12-29T01:43:16;98858.63;;;11.26;69.21
70841;BME280;58465;51.534;9.934;2022-12-29T01:45:47;98841.59;;;11.28;69.33
70841;BME280;58465;51.534;9.934;2022-12-29T01:48:13;98838.63;;;11.34;69.26
70841;BME280;58465;51.534;9.934;2022-12-29T01:50:46;98841.22;;;11.36;69.05
70841;BME280;58465;51.534;9.934;2022-12-29T01:53:25;98843.91;;;11.36;69.41
70841;BME280;58465;51.534;9.934;2022-12-29T01:55:55;98850.66;;;11.44;68.98
70841;BME280;58465;51.534;9.934;2022-12-29T01:58:26;98845.03;;;11.50;68.22
70841;BME280;58465;51.534;9.934;2022-12-29T02:00:52;98840.63;;;11.49;68.10
70841;BME280;58465;51.534;9.934;2022-12-29T02:03:19;98842.81;;;11.60;68.02
70841;BME280;58465;51.534;9.934;2022-12-29T02:05:51;98849.16;;;11.58;68.56
70841;BME280;58465;51.534;9.934;2022-12-29T02:08:20;98840.94;;;11.62;68.26
70841;BME280;58465;51.534;9.934;2022-12-29T02:10:47;98839.84;;;11.66;68.36
70841;BME280;58465;51.534;9.934;2022-12-29T02:13:15;98837.91;;;11.70;68.35
70841;BME280;58465;51.534;9.934;2022-12-29T02:24:16;98834.31;;;11.71;67.95
70841;BME280;58465;51.534;9.934;2022-12-29T02:27:12;98813.38;;;11.80;67.94
70841;BME280;58465;51.534;9.934;2022-12-29T02:32:54;98820.16;;;11.87;68.05
70841;BME280;58465;51.534;9.934;2022-12-29T02:38:26;98806.13;;;11.82;67.75
70841;BME280;58465;51.534;9.934;2022-12-29T02:41:03;98810.09;;;11.93;67.72
70841;BME280;58465;51.534;9.934;2022-12-29T02:43:38;98814.25;;;12.00;67.48
70841;BME280;58465;51.534;9.934;2022-12-29T02:46:22;98818.72;;;11.99;67.38
70841;BME280;58465;51.534;9.934;2022-12-29T02:49:01;98815.97;;;12.01;67.95
70841;BME280;58465;51.534;9.934;2022-12-29T02:54:03;98801.34;;;12.08;67.15
70841;BME280;58465;51.534;9.934;2022-12-29T02:56:46;98808.44;;;12.09;67.78
70841;BME280;58465;51.534;9.934;2022-12-29T02:59:12;98797.00;;;12.05;67.64
70841;BME280;58465;51.534;9.934;2022-12-29T03:10:52;98807.72;;;12.05;68.10
70841;BME280;58465;51.534;9.934;2022-12-29T03:13:28;98793.59;;;12.02;67.86
70841;BME280;58465;51.534;9.934;2022-12-29T03:16:28;98790.31;;;11.97;68.52
70841;BME280;58465;51.534;9.934;2022-12-29T03:19:18;98780.53;;;11.96;68.71
70841;BME280;58465;51.534;9.934;2022-12-29T03:21:48;98775.25;;;11.94;68.59
70841;BME280;58465;51.534;9.934;2022-12-29T03:24:37;98750.69;;;11.86;68.70
70841;BME280;58465;51.534;9.934;2022-12-29T03:27:05;98759.41;;;11.71;69.28
70841;BME280;58465;51.534;9.934;2022-12-29T03:29:38;98752.97;;;11.56;69.76
70841;BME280;58465;51.534;9.934;2022-12-29T03:32:08;98767.88;;;11.62;69.81
70841;BME280;58465;51.534;9.934;2022-12-29T03:34:34;98764.34;;;11.61;69.61
70841;BME280;58465;51.534;9.934;2022-12-29T03:37:05;98771.56;;;11.59;69.76
70841;BME280;58465;51.534;9.934;2022-12-29T03:39:32;98753.56;;;11.63;69.84
70841;BME280;58465;51.534;9.934;2022-12-29T03:42:01;98760.63;;;11.64;69.74
70841;BME280;58465;51.534;9.934;2022-12-29T03:44:35;98750.03;;;11.62;69.31
70841;BME280;58465;51.534;9.934;2022-12-29T03:47:01;98753.19;;;11.70;69.43
70841;BME280;58465;51.534;9.934;2022-12-29T03:49:27;98757.75;;;11.68;69.25
70841;BME280;58465;51.534;9.934;2022-12-29T03:51:52;98748.06;;;11.66;69.39
70841;BME280;58465;51.534;9.934;2022-12-29T03:54:17;98738.59;;;11.59;69.68
70841;BME280;58465;51.534;9.934;2022-12-29T03:56:43;98731.38;;;11.61;69.62
70841;BME280;58465;51.534;9.934;2022-12-29T03:59:08;98734.25;;;11.56;69.67
70841;BME280;58465;51.534;9.934;2022-12-29T04:01:33;98730.56;;;11.59;69.46
70841;BME280;58465;51.534;9.934;2022-12-29T04:03:59;98738.66;;;11.57;69.29
70841;BME280;58465;51.534;9.934;2022-12-29T04:06:24;98750.16;;;11.59;69.42
70841;BME280;58465;51.534;9.934;2022-12-29T04:08:49;98749.06;;;11.63;69.15
70841;BME280;58465;51.534;9.934;2022-12-29T04:11:14;98757.19;;;11.62;69.12
70841;BME280;58465;51.534;9.934;2022-12-29T04:13:40;98756.81;;;11.69;68.75
70841;BME280;58465;51.534;9.934;2022-12-29T04:16:06;98758.47;;;11.72;68.59
70841;BME280;58465;51.534;9.934;2022-12-29T04:18:31;98755.88;;;11.70;68.99
70841;BME280;58465;51.534;9.934;2022-12-29T04:20:57;98746.97;;;11.70;68.73
70841;BME280;58465;51.534;9.934;2022-12-29T04:23:28;98748.44;;;11.77;68.98
70841;BME280;58465;51.534;9.934;2022-12-29T04:25:54;98759.25;;;11.74;68.66
70841;BME280;58465;51.534;9.934;2022-12-29T04:28:19;98754.94;;;11.71;68.85
70841;BME280;58465;51.534;9.934;2022-12-29T04:30:45;98754.19;;;11.68;69.39
70841;BME280;58465;51.534;9.934;2022-12-29T04:33:11;98748.13;;;11.64;69.66
70841;BME280;58465;51.534;9.934;2022-12-29T04:35:36;98754.28;;;11.66;69.70
70841;BME280;58465;51.534;9.934;2022-12-29T04:38:02;98761.72;;;11.60;69.91
70841;BME280;58465;51.534;9.934;2022-12-29T04:40:28;98758.56;;;11.70;69.81
70841;BME280;58465;51.534;9.934;2022-12-29T04:42:53;98755.81;;;11.72;69.49
70841;BME280;58465;51.534;9.934;2022-12-29T04:45:18;98753.13;;;11.72;69.50
70841;BME280;58465;51.534;9.934;2022-12-29T04:47:44;98744.50;;;11.65;70.00
70841;BME280;58465;51.534;9.934;2022-12-29T04:50:09;98744.97;;;11.75;70.03
70841;BME280;58465;51.534;9.934;2022-12-29T04:52:35;98755.06;;;11.68;70.07
70841;BME280;58465;51.534;9.934;2022-12-29T04:55:00;98755.28;;;11.64;69.92
70841;BME280;58465;51.534;9.934;2022-12-29T04:57:26;98764.16;;;11.64;70.68
70841;BME280;58465;51.534;9.934;2022-12-29T04:59:51;98762.28;;;11.66;70.32
70841;BME280;58465;51.534;9.934;2022-12-29T05:02:17;98755.81;;;11.72;70.05
70841;BME280;58465;51.534;9.934;2022-12-29T05:04:42;98758.13;;;11.61;70.21
70841;BME280;58465;51.534;9.934;2022-12-29T05:07:08;98752.34;;;11.70;70.20
70841;BME280;58465;51.534;9.934;2022-12-29T05:09:33;98747.25;;;11.64;70.38
70841;BME280;58465;51.534;9.934;2022-12-29T05:11:58;98746.63;;;11.59;70.83
70841;BME280;58465;51.534;9.934;2022-12-29T05:14:23;98745.75;;;11.58;70.60
70841;BME280;58465;51.534;9.934;2022-12-29T05:16:49;98753.84;;;11.57;70.86
70841;BME280;58465;51.534;9.934;2022-12-29T05:19:14;98750.59;;;11.50;71.06
70841;BME280;58465;51.534;9.934;2022-12-29T05:21:39;98734.81;;;11.44;71.18
70841;BME280;58465;51.534;9.934;2022-12-29T05:24:05;98745.13;;;11.53;70.98
70841;BME280;58465;51.534;9.934;2022-12-29T05:26:30;98744.09;;;11.56;71.05
70841;BME280;58465;51.534;9.934;2022-12-29T05:28:55;98735.19;;;11.55;71.28
70841;BME280;58465;51.534;9.934;2022-12-29T05:31:21;98745.69;;;11.60;70.78
70841;BME280;58465;51.534;9.934;2022-12-29T05:33:46;98734.84;;;11.63;70.95
70841;BME280;58465;51.534;9.934;2022-12-29T05:36:11;98737.59;;;11.61;71.02
70841;BME280;58465;51.534;9.934;2022-12-29T05:38:37;98745.69;;;11.60;71.66
70841;BME280;58465;51.534;9.934;2022-12-29T05:41:02;98740.41;;;11.58;71.25
70841;BME280;58465;51.534;9.934;2022-12-29T05:43:27;98735.84;;;11.60;71.19
70841;BME280;58465;51.534;9.934;2022-12-29T05:45:53;98747.13;;;11.67;70.73
70841;BME280;58465;51.534;9.934;2022-12-29T05:48:19;98741.91;;;11.64;71.11
70841;BME280;58465;51.534;9.934;2022-12-29T05:50:48;98741.03;;;11.63;71.23
70841;BME280;58465;51.534;9.934;2022-12-29T05:53:13;98758.81;;;11.64;71.15
70841;BME280;58465;51.534;9.934;2022-12-29T05:55:39;98755.94;;;11.69;70.65
70841;BME280;58465;51.534;9.934;2022-12-29T05:58:04;98746.25;;;11.66;70.69
70841;BME280;58465;51.534;9.934;2022-12-29T06:00:29;98754.94;;;11.71;70.32
70841;BME280;58465;51.534;9.934;2022-12-29T06:02:55;98755.06;;;11.68;70.75
70841;BME280;58465;51.534;9.934;2022-12-29T06:05:20;98760.84;;;11.59;70.91
70841;BME280;58465;51.534;9.934;2022-12-29T06:07:45;98749.84;;;11.65;70.60
70841;BME280;58465;51.534;9.934;2022-12-29T06:10:11;98748.56;;;11.74;70.22
70841;BME280;58465;51.534;9.934;2022-12-29T06:12:36;98729.34;;;11.66;70.47
70841;BME280;58465;51.534;9.934;2022-12-29T06:15:02;98722.41;;;11.62;70.72
70841;BME280;58465;51.534;9.934;2022-12-29T06:17:27;98713.28;;;11.66;70.93
70841;BME280;58465;51.534;9.934;2022-12-29T06:19:52;98704.88;;;11.73;70.62
70841;BME280;58465;51.534;9.934;2022-12-29T06:22:18;98713.31;;;11.84;70.19
70841;BME280;58465;51.534;9.934;2022-12-29T06:24:43;98707.81;;;11.87;70.10
70841;BME280;58465;51.534;9.934;2022-12-29T06:27:08;98729.41;;;11.83;69.50
70841;BME280;58465;51.534;9.934;2022-12-29T06:29:33;98719.25;;;11.91;69.49
70841;BME280;58465;51.534;9.934;2022-12-29T06:32:01;98740.13;;;11.83;69.39
70841;BME280;58465;51.534;9.934;2022-12-29T06:34:26;98738.72;;;11.74;70.19
70841;BME280;58465;51.534;9.934;2022-12-29T06:36:51;98734.53;;;11.69;70.70
70841;BME280;58465;51.534;9.934;2022-12-29T06:39:17;98742.78;;;11.64;70.60
70841;BME280;58465;51.534;9.934;2022-12-29T06:41:42;98747.06;;;11.68;70.46
70841;BME280;58465;51.534;9.934;2022-12-29T06:44:07;98749.41;;;11.74;70.18
70841;BME280;58465;51.534;9.934;2022-12-29T06:46:32;98752.34;;;11.70;70.40
70841;BME280;58465;51.534;9.934;2022-12-29T06:48:58;98744.56;;;11.64;70.83
70841;BME280;58465;51.534;9.934;2022-12-29T06:51:23;98740.97;;;11.65;70.74
70841;BME280;58465;51.534;9.934;2022-12-29T06:53:48;98744.13;;;11.73;70.60
70841;BME280;58465;51.534;9.934;2022-12-29T06:56:13;98745.09;;;11.72;70.46
70841;BME280;58465;51.534;9.934;2022-12-29T06:58:39;98755.59;;;11.76;70.40
70841;BME280;58465;51.534;9.934;2022-12-29T07:01:04;98763.72;;;11.73;70.55
70841;BME280;58465;51.534;9.934;2022-12-29T07:03:29;98765.53;;;11.73;70.34
70841;BME280;58465;51.534;9.934;2022-12-29T07:05:55;98767.38;;;11.72;70.70
70841;BME280;58465;51.534;9.934;2022-12-29T07:08:20;98772.59;;;11.75;70.73
70841;BME280;58465;51.534;9.934;2022-12-29T07:10:46;98765.63;;;11.71;70.77
70841;BME280;58465;51.534;9.934;2022-12-29T07:13:11;98756.81;;;11.69;71.21
70841;BME280;58465;51.534;9.934;2022-12-29T07:15:37;98756.53;;;11.75;70.88
70841;BME280;58465;51.534;9.934;2022-12-29T07:18:03;98753.34;;;11.86;70.33
70841;BME280;58465;51.534;9.934;2022-12-29T07:20:29;98751.78;;;11.82;70.91
70841;BME280;58465;51.534;9.934;2022-12-29T07:22:54;98770.72;;;11.77;70.90
70841;BME280;58465;51.534;9.934;2022-12-29T07:25:19;98770.28;;;11.86;70.60
70841;BME280;58465;51.534;9.934;2022-12-29T07:27:45;98769.19;;;11.91;70.44
70841;BME280;58465;51.534;9.934;2022-12-29T07:30:10;98777.22;;;11.91;70.74
70841;BME280;58465;51.534;9.934;2022-12-29T07:32:36;98769.84;;;11.96;70.28
70841;BME280;58465;51.534;9.934;2022-12-29T07:35:01;98760.94;;;11.95;70.24
70841;BME280;58465;51.534;9.934;2022-12-29T07:37:27;98754.72;;;11.95;70.67
70841;BME280;58465;51.534;9.934;2022-12-29T07:39:52;98770.22;;;11.88;70.77
70841;BME280;58465;51.534;9.934;2022-12-29T07:42:18;98768.53;;;11.85;70.59
70841;BME280;58465;51.534;9.934;2022-12-29T07:44:43;98762.50;;;11.82;70.70
70841;BME280;58465;51.534;9.934;2022-12-29T07:47:08;98750.91;;;11.81;70.84
70841;BME280;58465;51.534;9.934;2022-12-29T07:49:33;98746.75;;;11.93;70.67
70841;BME280;58465;51.534;9.934;2022-12-29T07:51:59;98763.53;;;11.97;70.37
70841;BME280;58465;51.534;9.934;2022-12-29T07:54:24;98768.50;;;12.04;70.16
70841;BME280;58465;51.534;9.934;2022-12-29T07:56:49;98763.91;;;12.08;70.10
70841;BME280;58465;51.534;9.934;2022-12-29T07:59:15;98774.28;;;12.14;69.86
70841;BME280;58465;51.534;9.934;2022-12-29T08:01:40;98780.94;;;12.24;69.32
70841;BME280;58465;51.534;9.934;2022-12-29T08:04:05;98785.59;;;12.20;70.01
70841;BME280;58465;51.534;9.934;2022-12-29T08:06:31;98786.31;;;12.05;70.78
70841;BME280;58465;51.534;9.934;2022-12-29T08:08:56;98792.09;;;11.96;71.88
70841;BME280;58465;51.534;9.934;2022-12-29T08:11:22;98790.47;;;11.73;73.19
70841;BME280;58465;51.534;9.934;2022-12-29T08:13:48;98794.44;;;11.65;73.92
70841;BME280;58465;51.534;9.934;2022-12-29T08:16:13;98784.13;;;11.57;74.65
70841;BME280;58465;51.534;9.934;2022-12-29T08:18:39;98784.13;;;11.57;74.73
70841;BME280;58465;51.534;9.934;2022-12-29T08:21:05;98791.41;;;11.53;75.09
70841;BME280;58465;51.534;9.934;2022-12-29T08:23:30;98796.56;;;11.58;75.01
70841;BME280;58465;51.534;9.934;2022-12-29T08:25:57;98799.44;;;11.53;75.49
70841;BME280;58465;51.534;9.934;2022-12-29T08:28:23;98802.19;;;11.52;75.48
70841;BME280;58465;51.534;9.934;2022-12-29T08:30:48;98800.47;;;11.51;75.93
70841;BME280;58465;51.534;9.934;2022-12-29T08:33:13;98795.25;;;11.48;76.55
70841;BME280;58465;51.534;9.934;2022-12-29T08:35:38;98795.72;;;11.37;77.42
70841;BME280;58465;51.534;9.934;2022-12-29T08:38:04;98790.75;;;11.30;77.88
70841;BME280;58465;51.534;9.934;2022-12-29T08:40:29;98783.47;;;11.33;77.87
70841;BME280;58465;51.534;9.934;2022-12-29T08:42:54;98793.41;;;11.30;78.45
70841;BME280;58465;51.534;9.934;2022-12-29T08:45:19;98793.81;;;11.21;78.97
70841;BME280;58465;51.534;9.934;2022-12-29T08:47:45;98794.75;;;11.20;79.06
70841;BME280;58465;51.534;9.934;2022-12-29T08:50:10;98802.91;;;11.16;79.20
70841;BME280;58465;51.534;9.934;2022-12-29T08:52:35;98816.59;;;11.09;80.19
70841;BME280;58465;51.534;9.934;2022-12-29T08:55:00;98813.88;;;11.10;80.47
70841;BME280;58465;51.534;9.934;2022-12-29T08:57:26;98813.06;;;11.08;80.57
70841;BME280;58465;51.534;9.934;2022-12-29T08:59:51;98821.03;;;11.10;81.52
70841;BME280;58465;51.534;9.934;2022-12-29T09:02:16;98835.59;;;11.03;81.67
70841;BME280;58465;51.534;9.934;2022-12-29T09:04:41;98882.00;;;11.00;82.20
70841;BME280;58465;51.534;9.934;2022-12-29T09:07:06;98848.41;;;10.95;82.79
70841;BME280;58465;51.534;9.934;2022-12-29T09:09:32;98847.53;;;10.94;82.98
70841;BME280;58465;51.534;9.934;2022-12-29T09:11:57;98856.50;;;10.93;82.85
70841;BME280;58465;51.534;9.934;2022-12-29T09:14:23;98855.63;;;10.93;83.03
70841;BME280;58465;51.534;9.934;2022-12-29T09:16:51;98835.03;;;10.74;82.67
70841;BME280;58465;51.534;9.934;2022-12-29T09:19:34;98836.81;;;10.54;81.87
70841;BME280;58465;51.534;9.934;2022-12-29T09:22:00;98844.44;;;10.41;81.68
70841;BME280;58465;51.534;9.934;2022-12-29T09:24:25;98838.06;;;10.23;81.53
70841;BME280;58465;51.534;9.934;2022-12-29T09:26:50;98830.38;;;10.14;81.38
70841;BME280;58465;51.534;9.934;2022-12-29T09:29:15;98831.44;;;10.10;81.45
70841;BME280;58465;51.534;9.934;2022-12-29T09:31:41;98844.75;;;10.10;81.72
70841;BME280;58465;51.534;9.934;2022-12-29T09:34:06;98855.44;;;10.10;81.60
70841;BME280;58465;51.534;9.934;2022-12-29T09:36:31;98857.06;;;10.14;81.41
70841;BME280;58465;51.534;9.934;2022-12-29T09:38:56;98836.53;;;10.16;82.04
70841;BME280;58465;51.534;9.934;2022-12-29T09:41:29;98853.06;;;10.26;81.95
70841;BME280;58465;51.534;9.934;2022-12-29T09:44:22;98857.06;;;10.37;82.33
70841;BME280;58465;51.534;9.934;2022-12-29T09:46:52;98855.81;;;10.46;82.35
70841;BME280;58465;51.534;9.934;2022-12-29T09:49:30;98838.66;;;10.52;81.97
70841;BME280;58465;51.534;9.934;2022-12-29T09:52:08;98850.81;;;10.59;81.31
70841;BME280;58465;51.534;9.934;2022-12-29T09:57:01;98833.88;;;10.60;81.09
70841;BME280;58465;51.534;9.934;2022-12-29T09:59:41;98847.84;;;10.66;81.06
70841;BME280;58465;51.534;9.934;2022-12-29T10:02:32;98839.22;;;10.60;80.45
70841;BME280;58465;51.534;9.934;2022-12-29T10:04:59;98837.78;;;10.51;80.48
70841;BME280;58465;51.534;9.934;2022-12-29T10:07:36;98852.66;;;10.36;80.60
70841;BME280;58465;51.534;9.934;2022-12-29T10:10:30;98847.25;;;10.38;81.27
70841;BME280;58465;51.534;9.934;2022-12-29T10:13:13;98857.06;;;10.37;81.63
70841;BME280;58465;51.534;9.934;2022-12-29T10:16:11;98853.44;;;10.38;82.15
70841;BME280;58465;51.534;9.934;2022-12-29T10:18:54;98833.44;;;10.49;82.69
70841;BME280;58465;51.534;9.934;2022-12-29T10:21:47;98834.69;;;10.62;83.01
70841;BME280;58465;51.534;9.934;2022-12-29T10:24:21;98836.78;;;10.75;82.26
70841;BME280;58465;51.534;9.934;2022-12-29T10:26:48;98830.03;;;10.87;82.39
70841;BME280;58465;51.534;9.934;2022-12-29T10:29:19;98823.75;;;10.88;81.26
70841;BME280;58465;51.534;9.934;2022-12-29T10:31:48;98831.53;;;10.94;81.32
70841;BME280;58465;51.534;9.934;2022-12-29T10:34:20;98832.56;;;10.90;81.47
70841;BME280;58465;51.534;9.934;2022-12-29T10:36:49;98827.81;;;10.97;80.47
70841;BME280;58465;51.534;9.934;2022-12-29T10:39:23;98829.31;;;11.04;80.58
70841;BME280;58465;51.534;9.934;2022-12-29T10:42:08;98833.84;;;11.02;80.60
70841;BME280;58465;51.534;9.934;2022-12-29T10:44:34;98836.59;;;11.00;80.29
70841;BME280;58465;51.534;9.934;2022-12-29T10:47:10;98843.84;;;10.97;80.25
70841;BME280;58465;51.534;9.934;2022-12-29T10:49:39;98838.44;;;10.98;79.86
70841;BME280;58465;51.534;9.934;2022-12-29T10:52:06;98841.41;;;11.12;80.03
70841;BME280;58465;51.534;9.934;2022-12-29T10:54:38;98841.72;;;11.25;79.67
70841;BME280;58465;51.534;9.934;2022-12-29T10:59:50;98835.13;;;11.34;78.46
70841;BME280;58465;51.534;9.934;2022-12-29T11:02:26;98837.63;;;11.37;77.64
70841;BME280;58465;51.534;9.934;2022-12-29T11:05:01;98833.22;;;11.36;76.27
70841;BME280;58465;51.534;9.934;2022-12-29T11:07:28;98823.78;;;11.47;76.67
70841;BME280;58465;51.534;9.934;2022-12-29T11:09:55;98823.44;;;11.55;76.75
70841;BME280;58465;51.534;9.934;2022-12-29T11:12:28;98817.38;;;11.70;76.60
70841;BME280;58465;51.534;9.934;2022-12-29T11:15:11;98827.53;;;11.82;75.75
70841;BME280;58465;51.534;9.934;2022-12-29T11:17:49;98820.47;;;11.81;74.81
70841;BME280;58465;51.534;9.934;2022-12-29T11:20:28;98831.00;;;11.84;73.98
70841;BME280;58465;51.534;9.934;2022-12-29T11:22:54;98836.97;;;11.91;73.19
70841;BME280;58465;51.534;9.934;2022-12-29T11:25:19;98836.53;;;12.00;72.29
70841;BME280;58465;51.534;9.934;2022-12-29T11:28:03;98839.19;;;12.19;72.26
70841;BME280;58465;51.534;9.934;2022-12-29T11:30:38;98833.81;;;12.38;70.06
70841;BME280;58465;51.534;9.934;2022-12-29T11:33:03;98823.66;;;12.61;69.29
70841;BME280;58465;51.534;9.934;2022-12-29T11:35:39;98825.00;;;12.70;69.13
70841;BME280;58465;51.534;9.934;2022-12-29T11:38:06;98824.25;;;12.68;69.46
70841;BME280;58465;51.534;9.934;2022-12-29T11:40:40;98826.69;;;12.73;69.09
70841;BME280;58465;51.534;9.934;2022-12-29T11:43:05;98828.41;;;12.74;68.73
70841;BME280;58465;51.534;9.934;2022-12-29T11:45:33;98830.00;;;12.78;69.24
70841;BME280;58465;51.534;9.934;2022-12-29T11:48:09;98836.59;;;12.71;67.83
70841;BME280;58465;51.534;9.934;2022-12-29T11:50:40;98828.41;;;12.74;67.92
70841;BME280;58465;51.534;9.934;2022-12-29T11:53:16;98845.22;;;12.77;68.47
70841;BME280;58465;51.534;9.934;2022-12-29T11:55:55;98836.13;;;12.80;68.09
70841;BME280;58465;51.534;9.934;2022-12-29T11:58:28;98846.63;;;12.84;67.62
70841;BME280;58465;51.534;9.934;2022-12-29T12:00:55;98850.66;;;12.93;67.88
70841;BME280;58465;51.534;9.934;2022-12-29T12:03:24;98842.16;;;12.85;66.57
70841;BME280;58465;51.534;9.934;2022-12-29T12:05:57;98848.75;;;12.78;66.77
70841;BME280;58465;51.534;9.934;2022-12-29T12:08:36;98848.38;;;12.85;67.61
70841;BME280;58465;51.534;9.934;2022-12-29T12:11:18;98845.63;;;12.87;67.64
70841;BME280;58465;51.534;9.934;2022-12-29T12:14:05;98841.59;;;12.78;66.73
70841;BME280;58465;51.534;9.934;2022-12-29T12:16:39;98829.22;;;12.76;66.68
70841;BME280;58465;51.534;9.934;2022-12-29T12:19:31;98837.25;;;12.76;65.56
70841;BME280;58465;51.534;9.934;2022-12-29T12:22:08;98844.03;;;12.83;66.59
70841;BME280;58465;51.534;9.934;2022-12-29T12:25:03;98834.72;;;12.73;65.21
70841;BME280;58465;51.534;9.934;2022-12-29T12:27:39;98841.00;;;12.72;65.45
70841;BME280;58465;51.534;9.934;2022-12-29T12:30:19;98849.53;;;12.80;65.61
70841;BME280;58465;51.534;9.934;2022-12-29T12:33:04;98850.66;;;12.76;65.15
70841;BME280;58465;51.534;9.934;2022-12-29T12:35:44;98861.28;;;12.77;64.88
70841;BME280;58465;51.534;9.934;2022-12-29T12:41:00;98862.38;;;12.73;65.02
70841;BME280;58465;51.534;9.934;2022-12-29T12:43:46;98870.19;;;12.78;65.16
70841;BME280;58465;51.534;9.934;2022-12-29T12:46:23;98863.72;;;12.82;65.59
70841;BME280;58465;51.534;9.934;2022-12-29T12:49:29;98873.09;;;12.90;64.38
70841;BME280;58465;51.534;9.934;2022-12-29T13:00:02;98883.13;;;12.87;60.68
70841;BME280;58465;51.534;9.934;2022-12-29T13:05:22;98883.03;;;12.88;61.64
70841;BME280;58465;51.534;9.934;2022-12-29T13:16:15;98884.59;;;12.75;61.56
70841;BME280;58465;51.534;9.934;2022-12-29T13:19:03;98884.69;;;12.74;61.59
70841;BME280;58465;51.534;9.934;2022-12-29T13:26:49;98887.16;;;12.78;62.18
70841;BME280;58465;51.534;9.934;2022-12-29T13:29:36;98892.31;;;12.81;62.69
70841;BME280;58465;51.534;9.934;2022-12-29T13:32:18;98894.38;;;12.76;60.95
70841;BME280;58465;51.534;9.934;2022-12-29T13:35:07;98897.00;;;12.78;63.82
70841;BME280;58465;51.534;9.934;2022-12-29T13:37:50;98910.91;;;12.67;63.42
70841;BME280;58465;51.534;9.934;2022-12-29T13:40:18;98907.38;;;12.67;63.47
70841;BME280;58465;51.534;9.934;2022-12-29T13:42:46;98916.47;;;12.62;62.76
70841;BME280;58465;51.534;9.934;2022-12-29T13:45:21;98919.16;;;12.62;63.77
70841;BME280;58465;51.534;9.934;2022-12-29T13:48:02;98912.31;;;12.57;63.19
70841;BME280;58465;51.534;9.934;2022-12-29T13:50:33;98924.81;;;12.56;64.30
70841;BME280;58465;51.534;9.934;2022-12-29T13:53:17;98933.66;;;12.58;64.43
70841;BME280;58465;51.534;9.934;2022-12-29T13:58:27;98933.38;;;12.46;63.78
70841;BME280;58465;51.534;9.934;2022-12-29T14:01:14;98942.03;;;12.51;63.88
70841;BME280;58465;51.534;9.934;2022-12-29T14:03:57;98939.09;;;12.57;65.74
70841;BME280;58465;51.534;9.934;2022-12-29T14:06:28;98939.94;;;12.57;65.13
70841;BME280;58465;51.534;9.934;2022-12-29T14:08:57;98940.72;;;12.59;65.45
70841;BME280;58465;51.534;9.934;2022-12-29T14:11:30;98946.31;;;12.55;64.75
70841;BME280;58465;51.534;9.934;2022-12-29T14:13:56;98946.53;;;12.50;65.71
70841;BME280;58465;51.534;9.934;2022-12-29T14:16:30;98953.91;;;12.45;66.18
70841;BME280;58465;51.534;9.934;2022-12-29T14:19:04;98959.41;;;12.42;67.36